Time;durP1;ratioP1;P1;durP2;ratioP2;P2;SDS_P1;SDS_P2;PMS_P1;PMS_P2;Temp;Humidity;BMP_temperature;BMP_pressure;BME280_temperature;BME280_humidity;BME280_pressure;Samples;Min_cycle;Max_cycle;Signal;HPM_P1;HPM_P2
2022/08/16 00:00:04;;;;;;;1.15;1.15;;;19.80;80.20;;;;;;4999445;28;20133;-85
2022/08/16 00:02:30;;;;;;;2.15;1.75;;;19.80;80.70;;;;;;5014140;28;20053;-83
2022/08/16 00:04:56;;;;;;;2.58;1.60;;;19.70;81.10;;;;;;5017270;28;20025;-83
2022/08/16 00:07:22;;;;;;;1.40;1.30;;;19.60;81.70;;;;;;5015455;28;20365;-85
2022/08/16 00:09:47;;;;;;;1.80;1.40;;;19.60;82.00;;;;;;5018991;28;20429;-85
2022/08/16 00:12:13;;;;;;;1.50;1.40;;;19.60;82.20;;;;;;5021847;28;20026;-85
2022/08/16 00:14:39;;;;;;;1.65;1.40;;;19.60;82.10;;;;;;5016986;28;20053;-85
2022/08/16 00:17:05;;;;;;;1.35;1.20;;;19.70;82.20;;;;;;5015701;28;20132;-84
2022/08/16 00:19:33;;;;;;;1.63;1.33;;;19.70;82.50;;;;;;5032961;28;20520;-85
2022/08/16 00:21:59;;;;;;;1.30;1.20;;;19.60;82.60;;;;;;5015085;28;20076;-86
2022/08/16 00:24:26;;;;;;;1.83;1.40;;;19.60;82.70;;;;;;5038411;28;20006;-83
2022/08/16 00:26:52;;;;;;;1.42;1.33;;;19.60;83.00;;;;;;5035939;28;20131;-82
2022/08/16 00:29:18;;;;;;;2.10;1.27;;;19.60;83.30;;;;;;5035627;28;20026;-84
2022/08/16 00:31:46;;;;;;;1.38;1.30;;;19.60;83.40;;;;;;5035444;28;20033;-80
2022/08/16 00:34:13;;;;;;;1.83;1.45;;;19.50;83.50;;;;;;5036066;28;20030;-81
2022/08/16 00:36:38;;;;;;;1.92;1.63;;;19.50;83.70;;;;;;5028663;28;20118;-85
2022/08/16 00:39:04;;;;;;;1.92;1.45;;;19.50;83.90;;;;;;5017033;28;20026;-86
2022/08/16 00:41:32;;;;;;;1.63;1.40;;;19.50;84.00;;;;;;5026393;28;20006;-84
2022/08/16 00:44:01;;;;;;;1.52;1.42;;;19.50;84.20;;;;;;5018199;28;20511;-85
2022/08/16 00:46:34;;;;;;;1.90;1.80;;;19.50;84.30;;;;;;5021617;28;20033;-85
2022/08/16 00:49:05;;;;;;;1.80;1.38;;;19.50;84.50;;;;;;5024087;28;20054;-85
2022/08/16 00:51:32;;;;;;;1.00;1.00;;;19.50;84.70;;;;;;5017618;28;20120;-84
2022/08/16 00:53:57;;;;;;;1.45;1.33;;;19.40;84.80;;;;;;5019230;28;20057;-86
2022/08/16 00:56:29;;;;;;;1.35;1.30;;;19.40;85.10;;;;;;5019588;28;20022;-84
2022/08/16 00:58:55;;;;;;;1.20;1.10;;;19.40;85.20;;;;;;5017359;28;20056;-85
2022/08/16 01:01:21;;;;;;;1.58;1.13;;;19.40;85.50;;;;;;5017990;28;20030;-86
2022/08/16 01:03:51;;;;;;;1.80;1.38;;;19.40;85.30;;;;;;5021097;28;20030;-85
2022/08/16 01:06:18;;;;;;;1.60;1.50;;;19.40;85.40;;;;;;5019725;28;20121;-84
2022/08/16 01:08:47;;;;;;;1.85;1.63;;;19.40;85.60;;;;;;5017320;28;20032;-84
2022/08/16 01:11:14;;;;;;;1.45;1.35;;;19.40;85.80;;;;;;5008002;28;20030;-85
2022/08/16 01:13:41;;;;;;;1.55;1.30;;;19.40;86.50;;;;;;5017829;28;20022;-86
2022/08/16 01:16:12;;;;;;;1.60;1.50;;;19.40;86.00;;;;;;5020089;28;20033;-85
2022/08/16 01:18:50;;;;;;;1.65;1.55;;;19.40;86.00;;;;;;5018216;28;20032;-84
2022/08/16 01:21:35;;;;;;;1.67;1.58;;;19.30;86.00;;;;;;5017848;28;20030;-84
2022/08/16 01:24:24;;;;;;;2.53;1.77;;;19.40;86.30;;;;;;5018398;28;20029;-85
2022/08/16 01:26:53;;;;;;;1.50;1.40;;;19.40;86.30;;;;;;5019188;28;20022;-85
2022/08/16 01:29:26;;;;;;;1.50;1.40;;;19.40;86.20;;;;;;5019013;28;20049;-84
2022/08/16 01:31:52;;;;;;;2.85;2.10;;;19.40;86.20;;;;;;5018036;28;20049;-85
2022/08/16 01:34:18;;;;;;;1.58;1.48;;;19.40;86.20;;;;;;5019842;28;20054;-84
2022/08/16 01:36:44;;;;;;;1.70;1.60;;;19.40;86.40;;;;;;5030049;28;20076;-83
2022/08/16 01:39:16;;;;;;;1.60;1.20;;;19.40;86.40;;;;;;5035577;28;20049;-79
2022/08/16 01:41:43;;;;;;;1.40;1.30;;;19.40;86.30;;;;;;5026182;28;20014;-84
2022/08/16 01:44:08;;;;;;;1.90;1.30;;;19.40;86.60;;;;;;5017568;28;20672;-82
2022/08/16 01:46:42;;;;;;;1.42;1.30;;;19.30;86.80;;;;;;5013398;28;20045;-79
2022/08/16 01:49:14;;;;;;;1.30;1.10;;;19.30;86.90;;;;;;5033486;28;20033;-83
2022/08/16 01:51:42;;;;;;;1.40;1.30;;;19.30;86.90;;;;;;5026479;28;20037;-84
2022/08/16 01:54:08;;;;;;;2.00;1.58;;;19.30;86.80;;;;;;5028427;28;20010;-82
2022/08/16 01:56:35;;;;;;;1.30;1.20;;;19.30;86.60;;;;;;5025727;28;20026;-84
2022/08/16 01:59:04;;;;;;;1.30;1.20;;;19.30;86.90;;;;;;5021390;28;20029;-86
2022/08/16 02:01:30;;;;;;;1.60;1.50;;;19.30;87.00;;;;;;5003115;28;20035;-84
2022/08/16 02:03:56;;;;;;;1.77;1.42;;;19.30;86.80;;;;;;5000558;28;20050;-86
2022/08/16 02:06:22;;;;;;;1.63;1.40;;;19.30;86.70;;;;;;4999997;28;20023;-85
2022/08/16 02:08:48;;;;;;;1.67;1.58;;;19.30;86.80;;;;;;4999845;28;20122;-85
2022/08/16 02:11:14;;;;;;;1.52;1.42;;;19.30;86.90;;;;;;5007864;28;20159;-82
2022/08/16 02:13:40;;;;;;;1.73;1.45;;;19.30;86.90;;;;;;5020202;28;20014;-84
2022/08/16 02:16:08;;;;;;;1.42;1.20;;;19.30;86.80;;;;;;5042827;28;20028;-79
2022/08/16 02:18:33;;;;;;;1.10;1.10;;;19.30;86.60;;;;;;5035967;28;20049;-79
2022/08/16 02:21:00;;;;;;;1.20;1.20;;;19.30;86.50;;;;;;5035937;28;20037;-81
2022/08/16 02:23:26;;;;;;;1.58;1.48;;;19.30;86.60;;;;;;5036063;28;20102;-80
2022/08/16 02:25:52;;;;;;;1.40;1.30;;;19.30;86.50;;;;;;5036091;28;20022;-80
2022/08/16 02:28:19;;;;;;;1.38;1.30;;;19.20;86.00;;;;;;5025340;28;20121;-84
2022/08/16 02:30:45;;;;;;;1.38;1.15;;;19.20;86.00;;;;;;5022221;28;20026;-85
2022/08/16 02:33:12;;;;;;;1.38;1.27;;;19.20;86.00;;;;;;5021257;28;20046;-85
2022/08/16 02:35:38;;;;;;;1.20;1.10;;;19.20;85.90;;;;;;5001540;28;20036;-83
2022/08/16 02:38:05;;;;;;;2.50;1.40;;;19.20;85.70;;;;;;5002586;28;20030;-86
2022/08/16 02:40:31;;;;;;;1.52;1.40;;;19.20;85.60;;;;;;5003405;28;20033;-85
2022/08/16 02:42:57;;;;;;;1.35;1.25;;;19.20;85.40;;;;;;5020034;28;20528;-84
2022/08/16 02:45:25;;;;;;;1.23;1.23;;;19.20;85.40;;;;;;5021917;28;20361;-84
2022/08/16 02:47:52;;;;;;;1.30;1.20;;;19.10;85.40;;;;;;5021294;28;20053;-83
2022/08/16 02:50:18;;;;;;;1.40;1.30;;;19.10;85.40;;;;;;5026012;28;20049;-83
2022/08/16 02:52:44;;;;;;;1.27;1.17;;;19.00;85.50;;;;;;5017528;28;20022;-82
2022/08/16 02:55:11;;;;;;;1.55;1.45;;;19.00;85.70;;;;;;5017818;28;20049;-82
2022/08/16 02:57:37;;;;;;;1.23;1.10;;;18.90;86.00;;;;;;5011510;28;20456;-79
2022/08/16 03:00:11;;;;;;;1.52;1.20;;;18.90;86.40;;;;;;5019153;28;20046;-78
2022/08/16 03:02:39;;;;;;;1.10;1.10;;;18.80;86.60;;;;;;5014347;28;20034;-84
2022/08/16 03:05:06;;;;;;;1.40;1.30;;;18.80;86.90;;;;;;5003460;28;20024;-83
2022/08/16 03:07:31;;;;;;;1.15;1.05;;;18.70;87.10;;;;;;5004082;28;20015;-85
2022/08/16 03:09:57;;;;;;;1.30;1.20;;;18.70;87.30;;;;;;5012048;28;20419;-83
2022/08/16 03:12:23;;;;;;;1.30;1.20;;;18.60;87.90;;;;;;5029045;28;20037;-84
2022/08/16 03:14:49;;;;;;;2.00;1.63;;;18.60;88.60;;;;;;5037515;28;20030;-80
2022/08/16 03:17:15;;;;;;;1.50;1.40;;;18.50;89.20;;;;;;5053744;28;20056;-80
2022/08/16 03:19:45;;;;;;;1.48;1.38;;;18.50;89.60;;;;;;5060528;23;20038;-80
2022/08/16 03:22:13;;;;;;;1.95;1.38;;;18.50;90.00;;;;;;5019375;28;20022;-81
2022/08/16 03:24:41;;;;;;;1.40;1.30;;;18.40;90.10;;;;;;5006956;28;20093;-82
2022/08/16 03:27:14;;;;;;;1.73;1.30;;;18.40;90.30;;;;;;5011181;28;20033;-80
2022/08/16 03:29:46;;;;;;;1.10;1.10;;;18.40;90.40;;;;;;5023279;28;20034;-80
2022/08/16 03:32:14;;;;;;;2.38;1.02;;;;;;;;;;5030060;28;20052;-81
2022/08/16 03:34:40;;;;;;;1.13;1.13;;;18.30;90.20;;;;;;5030068;28;20025;-81
2022/08/16 03:37:06;;;;;;;1.17;1.08;;;18.30;90.50;;;;;;5030571;28;20065;-81
2022/08/16 03:39:32;;;;;;;1.33;1.23;;;18.30;90.60;;;;;;5028952;28;20471;-82
2022/08/16 03:41:57;;;;;;;1.25;1.23;;;18.20;90.60;;;;;;5013732;28;20052;-81
2022/08/16 03:44:23;;;;;;;1.17;1.15;;;18.20;90.80;;;;;;5009478;28;20128;-80
2022/08/16 03:46:49;;;;;;;1.40;1.30;;;18.10;91.00;;;;;;5008763;28;20050;-80
2022/08/16 03:49:16;;;;;;;1.50;1.40;;;18.00;91.20;;;;;;5019312;28;20420;-81
2022/08/16 03:51:42;;;;;;;1.05;1.05;;;17.90;91.50;;;;;;5006372;28;20022;-81
2022/08/16 03:54:08;;;;;;;4.07;1.33;;;17.80;91.90;;;;;;5002868;28;20046;-80
2022/08/16 03:56:34;;;;;;;1.85;1.60;;;17.80;92.10;;;;;;5009759;28;20025;-80
2022/08/16 03:58:59;;;;;;;1.50;1.48;;;17.80;92.50;;;;;;5013468;28;20038;-81
2022/08/16 04:01:26;;;;;;;1.92;1.40;;;17.70;92.70;;;;;;5022741;28;20073;-80
2022/08/16 04:03:55;;;;;;;1.40;1.30;;;17.70;93.00;;;;;;5019059;28;20482;-82
2022/08/16 04:06:21;;;;;;;1.88;1.75;;;17.70;93.20;;;;;;4993925;28;20030;-82
2022/08/16 04:08:47;;;;;;;1.35;1.25;;;17.70;93.40;;;;;;5004305;28;20018;-82
2022/08/16 04:11:13;;;;;;;1.70;1.60;;;17.60;93.60;;;;;;5009201;28;20034;-80
2022/08/16 04:13:39;;;;;;;1.55;1.45;;;17.60;93.90;;;;;;5008235;28;20041;-81
2022/08/16 04:16:05;;;;;;;2.30;1.85;;;17.60;94.00;;;;;;5009158;28;20034;-80
2022/08/16 04:18:31;;;;;;;1.65;1.55;;;17.60;94.20;;;;;;5008751;28;20090;-81
2022/08/16 04:20:57;;;;;;;1.50;1.40;;;17.50;94.40;;;;;;5006583;28;20023;-81
2022/08/16 04:23:22;;;;;;;1.60;1.50;;;17.50;94.60;;;;;;5007795;28;20022;-82
2022/08/16 04:25:49;;;;;;;1.67;1.48;;;17.50;94.80;;;;;;5007240;28;20030;-81
2022/08/16 04:28:15;;;;;;;2.58;1.92;;;17.50;95.00;;;;;;5008397;28;20023;-81
2022/08/16 04:30:41;;;;;;;2.65;1.55;;;17.40;95.10;;;;;;5007927;28;20027;-82
2022/08/16 04:33:07;;;;;;;1.58;1.48;;;17.50;95.30;;;;;;5024272;28;20037;-82
2022/08/16 04:35:33;;;;;;;1.88;1.60;;;17.40;95.30;;;;;;5005818;28;20436;-82
2022/08/16 04:37:59;;;;;;;1.85;1.60;;;17.40;95.30;;;;;;4999106;28;20101;-86
2022/08/16 04:40:26;;;;;;;1.67;1.50;;;17.40;95.40;;;;;;4997716;28;20511;-85
2022/08/16 04:42:52;;;;;;;1.60;1.50;;;17.40;95.80;;;;;;4999920;28;20489;-85
2022/08/16 04:45:18;;;;;;;1.60;1.50;;;17.50;95.70;;;;;;4996927;28;20035;-83
2022/08/16 04:47:44;;;;;;;1.60;1.50;;;17.60;95.50;;;;;;4994662;28;20030;-82
2022/08/16 04:50:17;;;;;;;2.33;1.50;;;17.60;95.30;;;;;;4990684;28;20444;-84
2022/08/16 04:52:45;;;;;;;2.08;1.60;;;17.60;95.30;;;;;;4995472;28;20030;-83
2022/08/16 04:55:16;;;;;;;1.30;1.30;;;17.70;95.20;;;;;;5011243;28;20100;-85
2022/08/16 04:57:43;;;;;;;1.48;1.38;;;17.90;95.10;;;;;;4999110;28;20511;-83
2022/08/16 05:00:15;;;;;;;5.07;1.85;;;18.00;94.70;;;;;;5003992;28;20022;-82
2022/08/16 05:02:41;;;;;;;2.50;1.45;;;18.00;94.30;;;;;;5002789;28;20023;-82
2022/08/16 05:05:08;;;;;;;1.63;1.48;;;18.00;94.00;;;;;;5006348;28;20442;-82
2022/08/16 05:07:34;;;;;;;1.60;1.50;;;18.00;94.10;;;;;;5009250;28;20026;-80
2022/08/16 05:10:00;;;;;;;1.80;1.70;;;17.90;94.10;;;;;;5011068;28;20038;-81
2022/08/16 05:12:25;;;;;;;1.70;1.60;;;17.80;94.20;;;;;;5012102;28;20026;-82
2022/08/16 05:14:51;;;;;;;2.00;1.77;;;17.80;94.40;;;;;;5013807;28;20022;-81
2022/08/16 05:17:17;;;;;;;2.13;1.45;;;17.90;94.40;;;;;;5013522;28;20019;-81
2022/08/16 05:19:42;;;;;;;3.95;2.03;;;17.90;94.10;;;;;;5011444;28;20098;-81
2022/08/16 05:22:08;;;;;;;1.60;1.42;;;17.90;94.00;;;;;;5010323;28;20086;-80
2022/08/16 05:24:34;;;;;;;1.80;1.70;;;18.00;93.90;;;;;;5008821;28;20069;-82
2022/08/16 05:26:59;;;;;;;1.55;1.42;;;18.00;93.80;;;;;;5027071;28;20026;-81
2022/08/16 05:29:25;;;;;;;1.50;1.40;;;18.10;93.70;;;;;;5006246;28;20029;-79
2022/08/16 05:31:50;;;;;;;1.48;1.38;;;18.20;93.50;;;;;;5003605;28;20015;-80
2022/08/16 05:34:20;;;;;;;1.67;1.58;;;18.30;93.10;;;;;;5003411;28;20110;-80
2022/08/16 05:36:48;;;;;;;3.08;1.30;;;18.50;92.80;;;;;;5002486;28;20026;-79
2022/08/16 05:39:14;;;;;;;1.10;1.10;;;18.50;92.40;;;;;;5003964;28;20507;-80
2022/08/16 05:41:39;;;;;;;1.77;1.45;;;18.60;92.20;;;;;;5002328;28;20042;-80
2022/08/16 05:44:05;;;;;;;2.05;1.75;;;18.60;92.10;;;;;;5004503;28;20109;-81
2022/08/16 05:46:32;;;;;;;1.35;1.30;;;18.60;92.00;;;;;;5010711;28;20074;-82
2022/08/16 05:48:59;;;;;;;2.88;1.50;;;18.60;92.00;;;;;;5014949;28;20033;-80
2022/08/16 05:51:25;;;;;;;2.08;1.50;;;18.60;91.90;;;;;;5013211;28;20014;-83
2022/08/16 05:53:50;;;;;;;1.65;1.55;;;18.70;91.70;;;;;;5017762;28;20049;-84
2022/08/16 05:56:16;;;;;;;2.35;1.67;;;18.80;91.60;;;;;;5013377;28;20043;-82
2022/08/16 05:58:42;;;;;;;4.97;1.90;;;18.90;91.30;;;;;;4994318;28;20022;-83
2022/08/16 06:01:08;;;;;;;2.50;2.15;;;19.00;91.10;;;;;;5011180;28;20023;-80
2022/08/16 06:03:33;;;;;;;2.22;1.88;;;19.10;90.90;;;;;;5009787;28;20022;-80
2022/08/16 06:05:59;;;;;;;2.50;1.83;;;19.10;90.50;;;;;;5005080;28;20512;-80
2022/08/16 06:08:25;;;;;;;1.90;1.70;;;19.20;90.30;;;;;;5005155;28;20365;-81
2022/08/16 06:10:51;;;;;;;1.50;1.40;;;19.30;90.00;;;;;;5005571;28;20039;-80
2022/08/16 06:13:17;;;;;;;1.83;1.73;;;19.30;89.40;;;;;;5006502;28;20584;-82
2022/08/16 06:15:43;;;;;;;1.58;1.45;;;19.40;89.10;;;;;;5006609;28;20029;-82
2022/08/16 06:18:09;;;;;;;1.67;1.48;;;19.50;88.30;;;;;;5022724;28;20023;-80
2022/08/16 06:20:34;;;;;;;1.45;1.30;;;19.60;87.90;;;;;;5005523;28;20041;-84
2022/08/16 06:23:00;;;;;;;1.65;1.55;;;20.00;88.10;;;;;;5010903;28;20014;-81
2022/08/16 06:25:27;;;;;;;1.42;1.33;;;23.00;81.70;;;;;;5005597;28;20040;-82
2022/08/16 06:27:54;;;;;;;1.05;1.05;;;;;;;;;;5008538;28;20023;-85
2022/08/16 06:30:20;;;;;;;1.05;1.00;;;29.20;60.50;;;;;;5011752;28;20035;-83
2022/08/16 06:32:49;;;;;;;1.42;1.33;;;31.10;55.40;;;;;;5003926;28;20484;-84
2022/08/16 06:35:15;;;;;;;1.10;1.10;;;32.50;51.40;;;;;;5006198;28;20033;-84
2022/08/16 06:37:41;;;;;;;2.08;1.48;;;;;;;;;;5008700;28;20412;-82
2022/08/16 06:40:08;;;;;;;1.10;1.10;;;;;;;;;;4999832;28;20050;-83
2022/08/16 06:42:34;;;;;;;1.15;1.15;;;;;;;;;;4999417;28;20038;-83
2022/08/16 06:45:00;;;;;;;1.27;1.27;;;;;;;;;;4998939;28;20030;-84
2022/08/16 06:47:26;;;;;;;1.42;1.35;;;;;;;;;;5005148;28;20041;-83
2022/08/16 06:49:53;;;;;;;1.30;1.25;;;;;;;;;;5012720;28;20034;-83
2022/08/16 06:52:21;;;;;;;0.93;0.93;;;35.00;43.50;;;;;;5015583;28;20046;-82
2022/08/16 06:54:48;;;;;;;1.40;1.30;;;35.00;43.80;;;;;;5004495;28;20041;-83
2022/08/16 06:57:16;;;;;;;1.58;1.52;;;34.30;43.60;;;;;;5003389;28;20026;-84
2022/08/16 06:59:45;;;;;;;1.02;1.02;;;31.70;45.10;;;;;;5006753;28;20034;-83
2022/08/16 07:02:16;;;;;;;1.33;1.23;;;29.00;49.00;;;;;;5013168;28;20027;-83
2022/08/16 07:04:41;;;;;;;1.80;1.25;;;26.80;52.60;;;;;;5013185;28;20037;-84
2022/08/16 07:07:07;;;;;;;2.03;1.40;;;25.20;56.00;;;;;;5008184;28;20026;-83
2022/08/16 07:09:33;;;;;;;1.70;1.50;;;24.00;58.80;;;;;;5004949;28;20030;-84
2022/08/16 07:11:58;;;;;;;3.28;1.70;;;23.30;61.40;;;;;;5005291;28;20102;-83
2022/08/16 07:14:24;;;;;;;1.50;1.40;;;22.80;63.50;;;;;;5006053;28;20035;-83
2022/08/16 07:16:50;;;;;;;1.60;1.50;;;;;;;;;;5008450;28;20026;-83
2022/08/16 07:19:16;;;;;;;2.17;1.42;;;22.20;65.00;;;;;;5013480;28;20034;-83
2022/08/16 07:21:42;;;;;;;1.25;1.15;;;22.00;65.30;;;;;;5005253;28;20092;-83
2022/08/16 07:24:08;;;;;;;1.92;1.52;;;21.90;65.50;;;;;;5002752;28;20031;-83
2022/08/16 07:26:40;;;;;;;3.92;2.00;;;21.80;66.00;;;;;;5005447;28;20037;-83
2022/08/16 07:29:05;;;;;;;3.05;1.90;;;21.80;66.50;;;;;;5006026;28;20026;-83
2022/08/16 07:31:32;;;;;;;2.08;1.77;;;21.80;66.70;;;;;;5005269;28;20120;-82
2022/08/16 07:33:57;;;;;;;3.47;1.48;;;21.80;66.90;;;;;;5005088;28;20034;-84
2022/08/16 07:36:24;;;;;;;2.17;1.98;;;21.80;66.60;;;;;;5004189;28;20078;-83
2022/08/16 07:38:51;;;;;;;1.55;1.45;;;21.80;66.00;;;;;;5005222;28;20026;-84
2022/08/16 07:41:32;;;;;;;1.88;1.65;;;21.90;65.60;;;;;;5006035;28;20097;-85
2022/08/16 07:43:58;;;;;;;1.53;1.43;;;22.00;64.90;;;;;;5006737;28;20023;-83
2022/08/16 07:46:24;;;;;;;3.15;1.75;;;22.10;64.20;;;;;;5018855;28;20026;-80
2022/08/16 07:48:50;;;;;;;3.05;1.80;;;22.30;63.50;;;;;;5005136;28;20023;-82
2022/08/16 07:51:22;;;;;;;2.28;2.08;;;22.40;63.20;;;;;;5002180;28;20018;-81
2022/08/16 07:53:50;;;;;;;;;;;22.50;62.90;;;;;;5002750;28;20026;-82
2022/08/16 07:56:17;;;;;;;2.88;1.70;;;22.60;62.50;;;;;;5001472;28;19910;-82
2022/08/16 07:58:43;;;;;;;1.77;1.67;;;22.70;62.30;;;;;;4998694;28;20039;-82
2022/08/16 08:01:09;;;;;;;1.50;1.40;;;22.80;61.90;;;;;;4999601;28;20040;-83
2022/08/16 08:03:38;;;;;;;12.13;3.28;;;22.80;61.60;;;;;;4998361;28;20034;-82
2022/08/16 08:06:03;;;;;;;10.98;2.63;;;22.90;61.50;;;;;;5004868;28;20036;-84
2022/08/16 08:08:29;;;;;;;3.63;2.45;;;23.10;61.20;;;;;;5007766;28;20035;-84
2022/08/16 08:10:55;;;;;;;4.13;2.17;;;23.20;61.00;;;;;;5006610;28;20043;-85
2022/08/16 08:13:21;;;;;;;3.03;2.20;;;23.30;60.70;;;;;;5008000;28;20026;-83
2022/08/16 08:15:50;;;;;;;2.22;1.60;;;23.50;59.90;;;;;;5022257;28;20034;-86
2022/08/16 08:18:51;;;;;;;1.98;1.75;;;23.60;59.20;;;;;;4997836;28;20030;-89
2022/08/16 08:21:30;;;;;;;;;;;;;;;;;;;;;
2022/08/16 08:24:06;;;;;;;2.60;1.80;;;24.00;58.40;;;;;;4999285;28;20367;-86
2022/08/16 08:26:40;;;;;;;3.33;1.75;;;24.10;58.00;;;;;;4997810;28;20022;-85
2022/08/16 08:32:43;;;;;;;3.20;1.67;;;24.20;57.40;;;;;;4958469;29;20031;-85
2022/08/16 08:35:14;;;;;;;1.85;1.73;;;24.50;57.00;;;;;;4985303;28;20203;-87
2022/08/16 08:37:59;;;;;;;3.10;2.20;;;24.70;56.50;;;;;;5012531;28;20019;-86
2022/08/16 08:40:26;;;;;;;3.65;2.00;;;24.80;55.60;;;;;;5008091;28;20030;-86
2022/08/16 08:42:57;;;;;;;3.25;1.77;;;25.00;55.70;;;;;;5005971;28;20026;-85
2022/08/16 08:46:12;;;;;;;3.30;1.80;;;25.00;55.20;;;;;;5000698;28;20030;-85
2022/08/16 08:49:07;;;;;;;2.05;1.88;;;25.20;54.60;;;;;;4998176;28;20034;-86
2022/08/16 08:52:30;;;;;;;3.35;2.10;;;25.30;54.10;;;;;;5007160;28;20045;-86
2022/08/16 08:58:42;;;;;;;2.75;2.00;;;25.50;54.00;;;;;;4958870;29;20127;-86
2022/08/16 09:01:38;;;;;;;5.80;2.47;;;25.70;53.40;;;;;;4943449;29;20027;-86
2022/08/16 09:20:28;;;;;;;3.53;2.05;;;26.40;51.80;;;;;;5062948;22;20056;-86
2022/08/16 09:22:56;;;;;;;2.03;1.92;;;26.70;51.10;;;;;;5038308;28;20103;-87
2022/08/16 09:25:23;;;;;;;2.67;1.95;;;26.90;50.60;;;;;;5045147;28;20029;-87
2022/08/16 09:27:49;;;;;;;3.17;2.22;;;27.00;50.60;;;;;;5046248;28;20044;-85
2022/08/16 09:30:15;;;;;;;3.58;2.85;;;27.20;50.40;;;;;;5046984;28;20025;-86
2022/08/16 09:32:40;;;;;;;6.05;3.10;;;27.30;49.90;;;;;;5044720;28;20025;-86
2022/08/16 09:35:07;;;;;;;3.75;2.60;;;27.30;49.80;;;;;;5044832;28;20489;-84
2022/08/16 09:40:56;;;;;;;;;;;27.50;49.50;;;;;;5069510;28;20090;-88
2022/08/16 09:43:28;;;;;;;1.77;1.67;;;27.60;48.80;;;;;;5073392;28;19934;-87
2022/08/16 09:45:53;;;;;;;2.30;2.00;;;27.70;49.60;;;;;;5069429;28;20056;-87
2022/08/16 09:48:19;;;;;;;2.00;1.85;;;27.80;48.90;;;;;;5053014;28;20028;-86
2022/08/16 09:50:45;;;;;;;2.10;1.90;;;27.90;48.50;;;;;;5050533;28;20028;-86
2022/08/16 09:53:21;;;;;;;1.83;1.73;;;28.20;48.10;;;;;;5045206;28;20030;-85
2022/08/16 09:55:50;;;;;;;2.22;2.03;;;28.40;47.20;;;;;;5057132;28;20077;-88
2022/08/16 09:58:18;;;;;;;3.78;2.17;;;28.50;46.60;;;;;;5039439;28;20013;-85
2022/08/16 10:00:49;;;;;;;2.30;2.20;;;28.70;46.00;;;;;;5059386;28;20022;-85
2022/08/16 10:03:17;;;;;;;2.72;2.10;;;28.50;46.20;;;;;;5064686;28;20159;-86
2022/08/16 10:05:47;;;;;;;3.40;2.30;;;28.60;46.10;;;;;;5190728;23;20060;-87
2022/08/16 10:08:15;;;;;;;2.13;1.80;;;28.80;45.50;;;;;;5033362;28;20029;-85
2022/08/16 10:13:10;;;;;;;3.45;2.38;;;28.90;45.20;;;;;;5033801;28;20018;-87
2022/08/16 10:13:36;;;;;;;2.45;2.25;;;28.80;45.10;;;;;;5030941;28;20025;-84
2022/08/16 10:16:07;;;;;;;3.08;1.98;;;28.80;45.40;;;;;;5013749;28;20033;-83
2022/08/16 10:18:34;;;;;;;4.32;2.10;;;28.80;45.30;;;;;;5012101;28;20033;-83
2022/08/16 10:25:30;;;;;;;3.55;2.47;;;29.10;44.50;;;;;;5030576;28;20065;-84
2022/08/16 10:31:38;;;;;;;2.20;2.10;;;29.10;44.70;;;;;;4937303;28;20102;-84
2022/08/16 10:34:04;;;;;;;2.28;2.10;;;29.50;44.00;;;;;;4990890;28;20086;-85
2022/08/16 10:36:31;;;;;;;2.53;2.33;;;29.80;43.80;;;;;;4979310;28;20051;-84
2022/08/16 10:38:57;;;;;;;2.58;2.00;;;29.90;42.90;;;;;;5034596;28;20077;-85
2022/08/16 10:41:23;;;;;;;2.13;1.92;;;29.70;42.80;;;;;;5021504;28;20027;-85
2022/08/16 10:43:49;;;;;;;3.38;1.98;;;29.50;42.90;;;;;;4996927;28;20067;-84
2022/08/16 10:46:15;;;;;;;2.00;1.90;;;29.50;43.10;;;;;;5014754;28;20023;-84
2022/08/16 10:48:42;;;;;;;1.90;1.80;;;30.00;42.90;;;;;;4999810;28;20112;-85
2022/08/16 10:51:09;;;;;;;2.78;2.58;;;30.40;42.00;;;;;;5036072;28;20117;-83
2022/08/16 10:53:36;;;;;;;2.50;2.30;;;30.50;41.70;;;;;;5017485;28;20060;-82
2022/08/16 10:56:04;;;;;;;4.22;2.28;;;30.50;41.80;;;;;;5036468;28;20022;-83
2022/08/16 10:58:30;;;;;;;3.25;2.30;;;30.60;41.30;;;;;;5036150;28;20033;-82
2022/08/16 11:00:56;;;;;;;2.13;2.03;;;30.60;41.50;;;;;;5018719;28;20105;-83
2022/08/16 11:03:21;;;;;;;2.33;2.13;;;30.80;42.00;;;;;;5017471;28;20041;-84
2022/08/16 11:05:47;;;;;;;7.05;2.55;;;31.10;41.80;;;;;;5033131;28;20056;-84
2022/08/16 11:08:13;;;;;;;2.95;2.22;;;30.90;41.50;;;;;;5031310;28;20068;-84
2022/08/16 11:10:42;;;;;;;5.47;2.15;;;30.90;41.50;;;;;;5030581;28;20038;-83
2022/08/16 11:13:09;;;;;;;5.78;2.53;;;30.30;41.60;;;;;;5030433;28;20050;-83
2022/08/16 11:15:36;;;;;;;3.22;2.30;;;29.90;42.20;;;;;;5030973;28;20036;-83
2022/08/16 11:18:02;;;;;;;4.15;2.50;;;29.40;42.80;;;;;;5031454;28;20010;-83
2022/08/16 11:20:28;;;;;;;5.88;2.10;;;29.40;42.90;;;;;;5031367;28;20511;-83
2022/08/16 11:22:55;;;;;;;4.60;2.60;;;29.40;43.40;;;;;;5030559;28;20033;-84
2022/08/16 11:25:23;;;;;;;2.55;2.35;;;29.70;43.10;;;;;;5030810;28;20057;-84
2022/08/16 11:27:50;;;;;;;2.50;2.30;;;29.90;42.30;;;;;;5029813;28;20121;-84
2022/08/16 11:30:17;;;;;;;3.80;2.33;;;30.10;42.30;;;;;;5028947;28;20037;-83
2022/08/16 11:32:43;;;;;;;4.20;2.58;;;30.10;42.50;;;;;;5032511;28;20038;-83
2022/08/16 11:35:25;;;;;;;4.10;2.33;;;30.30;41.70;;;;;;5031585;28;20612;-83
2022/08/16 11:38:04;;;;;;;2.92;2.20;;;30.40;41.30;;;;;;5028929;28;20098;-84
2022/08/16 11:40:45;;;;;;;2.85;2.42;;;30.40;41.30;;;;;;5028449;28;20080;-84
2022/08/16 11:43:16;;;;;;;2.53;2.10;;;30.70;41.10;;;;;;5031241;28;20038;-84
2022/08/16 11:45:43;;;;;;;2.80;2.10;;;30.80;41.00;;;;;;5037291;28;20034;-84
2022/08/16 11:48:09;;;;;;;2.95;2.08;;;30.90;40.60;;;;;;5050506;28;20045;-85
2022/08/16 11:50:35;;;;;;;2.72;2.00;;;31.00;40.30;;;;;;5033750;28;20121;-84
2022/08/16 11:53:03;;;;;;;5.50;2.13;;;31.20;39.90;;;;;;5048448;28;20026;-83
2022/08/16 11:55:29;;;;;;;2.63;2.17;;;31.30;39.40;;;;;;5036313;28;20048;-84
2022/08/16 11:57:55;;;;;;;3.35;2.70;;;31.30;39.00;;;;;;5035363;28;20025;-84
2022/08/16 12:00:20;;;;;;;2.25;2.05;;;31.30;39.40;;;;;;5046010;28;20018;-83
2022/08/16 12:02:46;;;;;;;2.80;1.80;;;31.20;39.90;;;;;;5032949;28;20038;-85
2022/08/16 12:05:14;;;;;;;2.42;2.30;;;31.40;39.30;;;;;;5047650;28;20033;-87
2022/08/16 12:07:40;;;;;;;3.17;2.40;;;31.40;39.50;;;;;;5036436;28;20033;-85
2022/08/16 12:10:14;;;;;;;2.28;2.10;;;31.60;39.10;;;;;;5050528;28;20085;-85
2022/08/16 12:12:40;;;;;;;2.60;1.90;;;31.60;38.30;;;;;;5054316;28;20036;-84
2022/08/16 12:15:07;;;;;;;2.30;2.10;;;31.30;38.40;;;;;;5052257;28;20025;-85
2022/08/16 12:17:33;;;;;;;2.03;1.92;;;31.10;38.90;;;;;;5053739;28;20049;-85
2022/08/16 12:20:00;;;;;;;4.78;2.05;;;31.20;39.10;;;;;;5043143;28;20026;-85
2022/08/16 12:22:26;;;;;;;2.20;2.00;;;31.40;38.60;;;;;;5031792;28;20022;-84
2022/08/16 12:24:52;;;;;;;1.98;1.88;;;31.70;37.90;;;;;;5033711;28;20045;-83
2022/08/16 12:27:19;;;;;;;3.25;2.30;;;31.80;37.20;;;;;;5036433;28;20026;-82
2022/08/16 12:29:44;;;;;;;4.13;2.20;;;32.00;37.40;;;;;;5046098;28;20086;-83
2022/08/16 12:32:13;;;;;;;2.92;2.25;;;31.80;37.60;;;;;;5043904;28;20033;-83
2022/08/16 12:34:41;;;;;;;2.05;1.90;;;31.70;38.80;;;;;;5041558;28;20036;-82
2022/08/16 12:37:07;;;;;;;2.25;2.05;;;31.40;38.40;;;;;;5041038;28;20082;-80
2022/08/16 12:39:32;;;;;;;2.20;1.85;;;31.30;39.00;;;;;;5043203;28;20039;-84
2022/08/16 12:41:58;;;;;;;4.68;2.03;;;31.20;38.50;;;;;;5038037;28;20022;-84
2022/08/16 12:44:25;;;;;;;3.22;2.45;;;31.20;40.40;;;;;;5035562;28;20040;-83
2022/08/16 12:49:35;;;;;;;2.60;2.25;;;30.90;39.90;;;;;;5033602;28;20035;-85
2022/08/16 12:52:00;;;;;;;2.65;2.45;;;30.90;39.00;;;;;;5034333;28;20034;-83
2022/08/16 12:54:26;;;;;;;2.15;2.00;;;30.90;42.00;;;;;;5041026;28;20036;-84
2022/08/16 12:56:52;;;;;;;2.92;2.30;;;30.90;39.40;;;;;;5050392;28;20037;-82
2022/08/16 12:59:20;;;;;;;3.10;2.17;;;31.10;39.70;;;;;;5033413;28;20037;-82
2022/08/16 13:01:46;;;;;;;3.83;2.20;;;31.50;39.50;;;;;;5030748;28;20056;-83
2022/08/16 13:04:13;;;;;;;3.03;2.25;;;32.10;39.40;;;;;;5032823;28;20022;-82
2022/08/16 13:06:40;;;;;;;3.65;2.20;;;32.40;38.80;;;;;;5034854;28;20053;-82
2022/08/16 13:09:22;;;;;;;4.47;2.08;;;32.60;37.80;;;;;;5044338;28;20030;-84
2022/08/16 13:11:59;;;;;;;2.40;2.05;;;32.60;37.50;;;;;;5029781;28;20029;-83
2022/08/16 13:14:33;;;;;;;4.85;2.20;;;32.40;37.60;;;;;;5035021;28;20036;-82
2022/08/16 13:17:01;;;;;;;3.25;2.58;;;32.40;38.20;;;;;;5033144;28;20052;-83
2022/08/16 13:19:28;;;;;;;2.15;1.95;;;32.30;36.80;;;;;;5051661;28;20029;-83
2022/08/16 13:21:53;;;;;;;2.63;2.30;;;32.00;36.00;;;;;;5050824;28;20033;-83
2022/08/16 13:24:19;;;;;;;2.58;2.10;;;31.60;36.30;;;;;;5045408;28;20029;-83
2022/08/16 13:26:47;;;;;;;3.60;2.17;;;31.50;36.70;;;;;;5046129;28;20043;-85
2022/08/16 13:29:13;;;;;;;2.55;2.35;;;31.50;36.60;;;;;;5047573;28;20072;-83
2022/08/16 13:31:39;;;;;;;3.40;2.50;;;31.30;37.30;;;;;;5042795;28;20038;-83